Time;durP1;ratioP1;P1;durP2;ratioP2;P2;SDS_P1;SDS_P2;PMS_P1;PMS_P2;Temp;Humidity;BMP_temperature;BMP_pressure;BME280_temperature;BME280_humidity;BME280_pressure;Samples;Min_cycle;Max_cycle;Signal;HPM_P1;HPM_P2
2022/08/03 00:00:31;;;;;;;4.07;3.00;;;;;;;27.85;51.54;101102.63;5094544;28;20056;-77
2022/08/03 00:02:58;;;;;;;4.22;2.75;;;;;;;27.87;51.27;101098.88;5096338;28;20052;-77
2022/08/03 00:05:26;;;;;;;4.63;2.85;;;;;;;27.87;51.42;101096.16;5096313;28;20036;-77
2022/08/03 00:07:54;;;;;;;4.85;2.70;;;;;;;27.88;51.47;101100.59;5096253;28;20048;-77
2022/08/03 00:10:22;;;;;;;4.57;2.38;;;;;;;27.88;51.27;101098.72;5096236;28;20055;-77
2022/08/03 00:12:50;;;;;;;7.43;3.08;;;;;;;27.91;51.16;101102.94;5096608;28;20047;-77
2022/08/03 00:15:19;;;;;;;4.47;3.20;;;;;;;27.91;51.27;101102.94;5096163;28;20055;-77
2022/08/03 00:17:46;;;;;;;5.35;3.08;;;;;;;27.91;51.14;101098.31;5095965;28;20055;-77
2022/08/03 00:20:21;;;;;;;4.97;2.60;;;;;;;27.91;51.03;101095.59;5096537;28;20047;-77
2022/08/03 00:22:49;;;;;;;4.00;2.80;;;;;;;27.93;51.40;101099.00;5095954;28;20472;-77
2022/08/03 00:25:17;;;;;;;3.38;2.83;;;;;;;27.93;51.08;101098.16;5095929;28;20052;-78
2022/08/03 00:27:44;;;;;;;3.72;2.83;;;;;;;27.92;51.53;101100.03;5096346;28;20055;-77
2022/08/03 00:30:16;;;;;;;3.92;3.03;;;;;;;27.95;51.47;101101.53;5078595;28;20059;-78
2022/08/03 00:32:44;;;;;;;6.03;2.53;;;;;;;27.94;51.61;101099.84;5094661;28;20060;-78
2022/08/03 00:35:12;;;;;;;4.07;2.33;;;;;;;27.93;51.27;101104.44;5095844;28;20052;-78
2022/08/03 00:38:00;;;;;;;4.65;3.00;;;;;;;27.94;51.39;101100.69;5095847;28;20376;-78
2022/08/03 00:40:28;;;;;;;4.57;2.65;;;;;;;27.94;51.54;101097.13;5095398;28;20055;-78
2022/08/03 00:42:58;;;;;;;4.15;2.92;;;;;;;27.95;51.49;101105.09;5095925;28;20048;-77
2022/08/03 00:45:29;;;;;;;4.03;2.85;;;;;;;27.95;51.21;101105.09;5093926;28;20048;-78
2022/08/03 00:47:58;;;;;;;4.82;2.97;;;;;;;27.96;51.21;101103.25;5095553;28;20051;-78
2022/08/03 00:50:28;;;;;;;2.95;2.60;;;;;;;27.96;51.10;101106.81;5095732;28;20044;-77
2022/08/03 00:52:57;;;;;;;3.97;2.50;;;;;;;27.95;51.25;101105.09;5095357;28;20066;-77
2022/08/03 00:55:25;;;;;;;5.95;2.83;;;;;;;27.96;51.12;101092.38;5094720;28;20032;-78
2022/08/03 00:57:54;;;;;;;5.25;3.00;;;;;;;27.97;50.90;101096.78;5090843;28;20498;-78
2022/08/03 01:00:25;;;;;;;3.15;2.55;;;;;;;27.96;51.11;101098.66;5094890;28;20491;-78
2022/08/03 01:02:53;;;;;;;3.17;2.70;;;;;;;27.96;51.14;101101.38;5094171;28;20055;-77
2022/08/03 01:05:21;;;;;;;4.97;3.10;;;;;;;27.97;51.23;101094.88;5094373;28;20039;-77
2022/08/03 01:08:12;;;;;;;4.85;2.63;;;;;;;27.96;50.96;101090.47;5093922;28;20058;-77
2022/08/03 01:11:10;;;;;;;3.53;2.40;;;;;;;27.97;51.36;101094.88;5094040;28;20479;-77
2022/08/03 01:14:03;;;;;;;3.78;2.90;;;;;;;27.98;50.81;101096.56;5095267;28;20051;-77
2022/08/03 01:17:01;;;;;;;3.72;2.85;;;;;;;27.97;51.31;101092.16;5095162;28;20510;-77
2022/08/03 01:20:00;;;;;;;3.60;2.65;;;;;;;27.98;51.11;101096.56;5094352;28;20518;-77
2022/08/03 01:22:32;;;;;;;3.45;2.70;;;;;;;27.97;50.79;101084.00;5094834;28;20040;-76
2022/08/03 01:25:12;;;;;;;4.82;3.00;;;;;;;27.98;50.98;101093.00;5093862;28;20055;-77
2022/08/03 01:27:58;;;;;;;3.60;2.50;;;;;;;27.98;50.67;101085.69;5094897;28;20044;-77
2022/08/03 01:30:32;;;;;;;4.75;3.08;;;;;;;27.97;50.87;101083.16;5094565;28;20051;-77
2022/08/03 01:33:05;;;;;;;3.00;2.47;;;;;;;27.98;50.61;101091.13;5094932;28;20055;-77
2022/08/03 01:35:41;;;;;;;3.28;2.85;;;;;;;27.98;51.00;101091.13;5094303;28;20384;-77
2022/08/03 01:38:14;;;;;;;3.88;2.65;;;;;;;27.99;50.57;101086.53;5094572;28;20052;-77
2022/08/03 01:40:43;;;;;;;3.33;3.00;;;;;;;27.98;50.61;101080.25;5094962;28;20048;-77
2022/08/03 01:43:15;;;;;;;3.40;2.47;;;;;;;27.99;50.79;101090.09;5093200;28;20499;-77
2022/08/03 01:46:06;;;;;;;4.55;2.75;;;;;;;27.98;50.75;101082.97;5074080;28;20045;-77
2022/08/03 01:48:38;;;;;;;4.68;3.13;;;;;;;27.98;50.71;101080.25;5073503;28;20048;-77
2022/08/03 01:51:07;;;;;;;4.53;2.97;;;;;;;27.98;50.91;101077.53;5074027;28;20060;-77
2022/08/03 01:53:41;;;;;;;3.92;2.63;;;;;;;27.98;50.46;101077.53;5056463;28;20523;-77
2022/08/03 01:56:10;;;;;;;3.28;2.97;;;;;;;27.99;50.56;101083.81;5078637;28;20040;-77
2022/08/03 01:58:41;;;;;;;5.45;3.20;;;;;;;27.99;50.44;101078.38;5093180;28;20067;-77
2022/08/03 02:01:10;;;;;;;3.60;2.63;;;;;;;27.99;50.33;101079.22;5081500;28;20487;-77
2022/08/03 02:03:42;;;;;;;3.38;2.95;;;;;;;28.00;50.74;101077.38;5074122;28;20041;-77
2022/08/03 02:06:31;;;;;;;4.57;2.92;;;;;;;27.99;50.47;101079.22;5072976;28;20456;-77
2022/08/03 02:09:21;;;;;;;3.55;2.80;;;;;;;27.98;50.72;101082.97;5072540;28;20060;-77
2022/08/03 02:11:52;;;;;;;3.67;2.78;;;;;;;28.00;50.57;101089.09;5074256;28;20056;-77
2022/08/03 02:14:22;;;;;;;3.88;2.90;;;;;;;28.01;50.44;101082.63;5072490;28;20044;-78
2022/08/03 02:16:51;;;;;;;4.68;2.90;;;;;;;28.00;50.37;101083.66;5073773;28;20048;-78
2022/08/03 02:19:20;;;;;;;3.42;3.13;;;;;;;28.02;50.69;101083.44;5074169;28;20059;-78
2022/08/03 02:21:50;;;;;;;3.83;2.67;;;;;;;28.02;50.34;101081.56;5073524;28;20056;-78
2022/08/03 02:24:29;;;;;;;3.17;2.83;;;;;;;28.01;50.71;101088.06;5072646;28;20514;-77
2022/08/03 02:26:58;;;;;;;3.90;2.97;;;;;;;28.02;50.08;101080.72;5072264;28;20044;-77
2022/08/03 02:29:32;;;;;;;4.88;3.47;;;;;;;28.01;50.71;101085.34;5073409;28;20067;-77
2022/08/03 02:32:15;;;;;;;7.18;2.72;;;;;;;28.01;50.17;101079.88;5072308;28;20500;-77
2022/08/03 02:34:48;;;;;;;4.05;2.70;;;;;;;28.02;50.40;101083.44;5073665;28;20369;-77
2022/08/03 02:37:18;;;;;;;3.50;3.20;;;;;;;28.00;50.36;101083.66;5072421;28;20045;-77
2022/08/03 02:39:48;;;;;;;3.55;2.83;;;;;;;28.02;50.22;101088.91;5072709;28;20041;-77
2022/08/03 02:42:20;;;;;;;3.08;2.72;;;;;;;28.00;50.18;101083.66;5073160;28;20051;-77
2022/08/03 02:44:50;;;;;;;4.85;2.88;;;;;;;28.01;50.18;101084.50;5072372;28;20052;-77
2022/08/03 02:47:20;;;;;;;3.83;3.03;;;;;;;28.00;50.29;101083.66;5073155;28;20048;-77
2022/08/03 02:49:50;;;;;;;3.80;2.70;;;;;;;27.99;50.28;101081.94;5055382;28;20060;-77
2022/08/03 02:52:22;;;;;;;3.70;2.97;;;;;;;28.00;49.88;101082.81;5072828;28;20071;-77
2022/08/03 02:54:58;;;;;;;4.05;3.47;;;;;;;27.99;50.09;101081.94;5073364;28;20384;-77
2022/08/03 02:57:29;;;;;;;5.50;3.15;;;;;;;27.98;49.73;101082.97;5079782;28;20048;-77
2022/08/03 02:59:58;;;;;;;3.67;2.90;;;;;;;27.99;50.13;101083.81;5087807;28;20040;-77
2022/08/03 03:02:27;;;;;;;2.80;2.38;;;;;;;27.97;50.01;101081.28;5085421;28;20047;-77
2022/08/03 03:04:55;;;;;;;4.57;2.65;;;;;;;27.98;50.19;101074.81;5093230;28;20052;-77
2022/08/03 03:07:43;;;;;;;4.75;3.10;;;;;;;27.99;50.16;101087.38;5093268;28;20102;-77
2022/08/03 03:10:24;;;;;;;4.13;2.90;;;;;;;27.96;50.09;101082.31;5092135;28;20071;-77
2022/08/03 03:12:55;;;;;;;3.30;2.90;;;;;;;27.97;50.58;101078.56;5093372;28;20044;-77
2022/08/03 03:15:35;;;;;;;3.13;2.83;;;;;;;27.97;50.41;101078.56;5093274;28;20044;-77
2022/08/03 03:18:04;;;;;;;3.40;2.85;;;;;;;27.96;50.29;101082.31;5093610;28;20400;-77
2022/08/03 03:20:34;;;;;;;3.78;3.03;;;;;;;27.96;50.76;101079.59;5093331;28;20396;-77
2022/08/03 03:23:03;;;;;;;4.35;3.25;;;;;;;27.95;50.91;101072.44;5093700;28;20051;-77
2022/08/03 03:25:32;;;;;;;3.38;3.08;;;;;;;27.96;50.57;101067.88;5093450;28;20043;-78
2022/08/03 03:28:00;;;;;;;3.88;2.80;;;;;;;27.96;50.56;101071.44;5093016;28;20048;-78
2022/08/03 03:30:29;;;;;;;5.07;3.17;;;;;;;27.97;50.53;101072.28;5093064;28;20051;-77
2022/08/03 03:32:57;;;;;;;3.13;2.83;;;;;;;27.97;50.64;101077.72;5093254;28;20055;-77
2022/08/03 03:35:26;;;;;;;3.25;2.90;;;;;;;27.96;50.65;101082.31;5093200;28;20499;-77
2022/08/03 03:37:54;;;;;;;4.35;2.55;;;;;;;27.96;50.83;101082.31;5093136;28;20044;-77
2022/08/03 03:40:21;;;;;;;3.10;2.80;;;;;;;27.97;50.51;101081.28;5092986;28;20391;-77
2022/08/03 03:42:49;;;;;;;3.17;2.80;;;;;;;27.96;50.67;101082.31;5096396;28;20047;-75
2022/08/03 03:45:18;;;;;;;2.95;2.50;;;;;;;27.96;50.66;101087.75;5096519;28;20047;-75
2022/08/03 03:47:45;;;;;;;5.53;2.90;;;;;;;27.97;50.40;101092.16;5095518;28;20047;-75
2022/08/03 03:50:14;;;;;;;3.55;3.13;;;;;;;27.97;50.04;101085.88;5096609;28;20048;-77
2022/08/03 03:52:42;;;;;;;2.90;2.60;;;;;;;27.96;50.38;101090.47;5096962;28;20467;-77
2022/08/03 03:55:09;;;;;;;3.97;2.72;;;;;;;27.97;49.95;101089.44;5096405;28;20051;-77
2022/08/03 03:57:36;;;;;;;3.08;2.55;;;;;;;27.98;50.17;101090.28;5095999;28;20063;-77
2022/08/03 04:00:05;;;;;;;4.03;2.70;;;;;;;27.97;49.86;101092.16;5091922;28;20036;-77
2022/08/03 04:02:32;;;;;;;3.47;3.00;;;;;;;27.96;49.76;101090.47;5076109;28;20057;-77
2022/08/03 04:11:19;;;;;;;3.78;3.40;;;;;;;27.97;49.90;101094.88;5076241;28;20388;-77
2022/08/03 04:13:55;;;;;;;4.07;3.35;;;;;;;27.97;50.08;101092.16;5076417;28;20055;-76
2022/08/03 04:16:30;;;;;;;;;;;;;;;27.96;50.01;101095.94;5076326;28;20044;-77
2022/08/03 04:19:09;;;;;;;4.57;3.47;;;;;;;27.96;49.60;101095.94;5076253;28;20040;-77
2022/08/03 04:21:41;;;;;;;3.83;3.00;;;;;;;27.96;49.63;101103.25;5076331;28;20056;-77
2022/08/03 04:24:10;;;;;;;4.00;2.97;;;;;;;27.97;49.85;101104.94;5074186;28;20396;-77
2022/08/03 04:26:40;;;;;;;3.80;2.85;;;;;;;27.96;49.86;101104.09;5075139;28;20048;-77
2022/08/03 04:29:12;;;;;;;3.45;2.92;;;;;;;27.96;49.45;101104.09;5074921;28;20055;-77
2022/08/03 04:31:41;;;;;;;3.70;3.20;;;;;;;27.96;49.87;101100.53;5075643;28;20052;-77
2022/08/03 04:34:09;;;;;;;3.33;2.97;;;;;;;27.97;49.55;101102.22;5075900;28;20055;-77
2022/08/03 04:36:43;;;;;;;3.97;3.20;;;;;;;27.96;49.75;101109.53;5075359;28;20047;-77
2022/08/03 04:39:24;;;;;;;3.65;2.90;;;;;;;27.96;49.37;101108.69;5075295;28;20067;-77
2022/08/03 04:41:57;;;;;;;4.18;3.17;;;;;;;27.96;49.30;101117.69;5075584;28;20052;-77
2022/08/03 04:44:39;;;;;;;3.83;3.15;;;;;;;27.95;49.39;101107.81;5075605;28;20044;-77
2022/08/03 04:47:07;;;;;;;4.07;2.88;;;;;;;27.96;49.12;101114.13;5075058;28;20052;-77
2022/08/03 04:49:38;;;;;;;3.60;3.05;;;;;;;27.94;49.16;101111.56;5074825;28;20040;-77
2022/08/03 04:52:07;;;;;;;4.55;3.05;;;;;;;27.95;49.26;101115.97;5074853;28;20060;-77
2022/08/03 04:54:42;;;;;;;3.75;2.70;;;;;;;27.95;48.92;101123.31;5072555;28;20056;-78
2022/08/03 04:57:17;;;;;;;3.28;2.97;;;;;;;27.94;48.88;101117.03;5074619;28;20055;-77
2022/08/03 04:59:55;;;;;;;;;;;;;;;27.95;49.13;101124.16;5083756;28;20040;-77
2022/08/03 05:02:30;;;;;;;4.28;3.00;;;;;;;27.94;48.94;101125.19;5085055;28;20372;-77
2022/08/03 05:04:58;;;;;;;3.55;2.70;;;;;;;27.95;48.75;101126.03;5094916;28;20051;-77
2022/08/03 05:07:25;;;;;;;4.05;3.30;;;;;;;27.93;49.12;101119.94;5077355;28;20044;-76
2022/08/03 05:10:07;;;;;;;3.67;3.03;;;;;;;27.93;49.01;101119.94;5095063;28;20051;-77
2022/08/03 05:12:42;;;;;;;5.85;3.90;;;;;;;27.92;47.60;101123.69;5094786;28;20484;-77
2022/08/03 05:15:09;;;;;;;9.73;4.53;;;;;;;27.86;46.64;101127.97;5094476;28;20411;-77
2022/08/03 05:17:37;;;;;;;6.97;4.85;;;;;;;27.79;46.44;101129.72;5095148;28;20048;-77
2022/08/03 05:20:05;;;;;;;5.93;3.95;;;;;;;27.70;46.73;101128.03;5094677;28;20054;-77
2022/08/03 05:22:32;;;;;;;9.90;5.10;;;;;;;27.65;46.68;101130.47;5094361;28;20039;-77
2022/08/03 05:25:01;;;;;;;4.90;3.88;;;;;;;27.62;46.88;101123.50;5095035;28;20055;-77
2022/08/03 05:27:28;;;;;;;7.68;4.20;;;;;;;27.60;46.78;101129.13;5094410;28;20044;-78
2022/08/03 05:29:55;;;;;;;7.32;4.00;;;;;;;27.58;46.90;101128.44;5094280;28;20122;-78
2022/08/03 05:32:43;;;;;;;5.53;3.97;;;;;;;27.56;46.99;101135.97;5094640;28;20044;-78
2022/08/03 05:35:10;;;;;;;7.10;3.80;;;;;;;27.53;47.20;101139.03;5094119;28;20075;-79
2022/08/03 05:37:57;;;;;;;5.28;4.05;;;;;;;27.52;47.00;101145.50;5094358;28;20055;-78
2022/08/03 05:40:25;;;;;;;4.65;3.67;;;;;;;27.52;46.88;101140.06;5094624;28;20055;-78
2022/08/03 05:42:53;;;;;;;5.30;3.42;;;;;;;27.51;47.44;101146.53;5094092;28;20050;-78
2022/08/03 05:45:20;;;;;;;5.60;3.78;;;;;;;27.50;46.98;101139.38;5094160;28;20411;-78
2022/08/03 05:47:54;;;;;;;6.97;4.00;;;;;;;27.50;46.89;101146.69;5094434;28;20047;-77
2022/08/03 05:50:34;;;;;;;;;;;;;;;;;;;;;
2022/08/03 05:53:08;;;;;;;8.55;4.30;;;;;;;27.47;47.01;101160.66;5094096;28;20056;-78
2022/08/03 05:55:36;;;;;;;8.68;3.67;;;;;;;27.45;47.36;101147.22;5092920;28;20052;-78
2022/08/03 05:58:03;;;;;;;6.97;3.45;;;;;;;27.44;47.47;101145.53;5093282;28;20044;-78
2022/08/03 06:00:31;;;;;;;7.03;3.70;;;;;;;27.44;47.30;101147.41;5090258;28;20048;-78
2022/08/03 06:02:58;;;;;;;6.10;3.20;;;;;;;27.45;47.38;101157.25;5093434;28;20051;-78
2022/08/03 06:05:27;;;;;;;6.50;2.95;;;;;;;27.47;47.46;101147.06;5093353;28;20040;-78
2022/08/03 06:07:54;;;;;;;9.48;3.20;;;;;;;27.47;47.71;101149.78;5093672;28;20395;-78
2022/08/03 06:10:21;;;;;;;8.10;3.65;;;;;;;27.48;47.72;101149.59;5094330;28;20062;-78
2022/08/03 06:13:04;;;;;;;4.85;3.88;;;;;;;27.46;47.49;101148.91;5094168;28;20048;-78
2022/08/03 06:15:32;;;;;;;5.45;4.00;;;;;;;27.43;47.38;101157.47;5093346;28;20047;-78
2022/08/03 06:17:59;;;;;;;5.35;3.65;;;;;;;27.40;47.55;101157.81;5093690;28;20040;-78
2022/08/03 06:20:29;;;;;;;6.38;3.83;;;;;;;27.36;47.71;101168.19;5091463;28;20526;-78
2022/08/03 06:22:56;;;;;;;6.43;4.32;;;;;;;27.28;47.51;101164.66;5093238;28;20044;-77
2022/08/03 06:25:27;;;;;;;8.40;5.05;;;;;;;27.22;48.03;101171.63;5093004;28;20051;-77
2022/08/03 06:27:55;;;;;;;8.20;4.30;;;;;;;27.18;48.59;101173.00;5093420;28;20399;-79
2022/08/03 06:30:22;;;;;;;6.45;4.10;;;;;;;27.16;48.74;101177.78;5094120;28;20040;-78
2022/08/03 06:32:50;;;;;;;5.03;4.53;;;;;;;27.15;49.06;101186.13;5092081;28;20043;-77
2022/08/03 06:35:18;;;;;;;8.93;4.80;;;;;;;27.09;49.13;101174.88;5093250;28;20044;-78
2022/08/03 06:37:48;;;;;;;6.38;4.97;;;;;;;27.05;48.98;101181.69;5093703;28;20036;-78
2022/08/03 06:40:18;;;;;;;7.05;4.90;;;;;;;27.00;49.27;101175.94;5092061;28;20036;-78
2022/08/03 06:42:50;;;;;;;7.93;4.25;;;;;;;27.01;49.34;101176.78;5093764;28;20048;-77
2022/08/03 06:45:18;;;;;;;10.43;4.40;;;;;;;27.00;49.56;101181.34;5093128;28;20504;-78
2022/08/03 06:47:45;;;;;;;6.72;4.57;;;;;;;27.03;49.67;101189.16;5092992;28;20036;-78
2022/08/03 06:50:12;;;;;;;6.18;4.72;;;;;;;27.01;49.61;101196.63;5093258;28;20494;-78
2022/08/03 06:52:44;;;;;;;9.23;5.03;;;;;;;27.00;49.62;101196.81;5093759;28;20047;-77
2022/08/03 06:55:12;;;;;;;7.63;4.97;;;;;;;26.99;49.95;101190.53;5092036;28;20292;-78
2022/08/03 06:57:39;;;;;;;5.43;3.83;;;;;;;26.99;50.25;101193.25;5092873;28;20056;-77
2022/08/03 07:00:08;;;;;;;5.55;4.22;;;;;;;27.02;50.14;101198.34;5089381;28;20059;-78
2022/08/03 07:02:41;;;;;;;6.45;4.20;;;;;;;27.05;50.47;101206.13;5086035;28;20048;-77
2022/08/03 07:05:09;;;;;;;8.63;5.03;;;;;;;27.07;50.65;101200.53;5072754;28;20044;-77
2022/08/03 07:07:36;;;;;;;8.02;5.07;;;;;;;27.09;50.98;101204.75;5072858;28;20094;-78
2022/08/03 07:10:05;;;;;;;9.85;5.75;;;;;;;27.10;50.96;101203.81;5072993;28;20048;-77
2022/08/03 07:12:33;;;;;;;8.00;5.07;;;;;;;27.11;51.26;101207.34;5073158;28;20044;-77
2022/08/03 07:15:01;;;;;;;6.90;5.20;;;;;;;27.12;51.54;101209.03;5071721;28;20086;-77
2022/08/03 07:17:31;;;;;;;10.73;5.32;;;;;;;27.12;51.43;101214.47;5075655;28;20049;-77
2022/08/03 07:20:00;;;;;;;9.38;5.22;;;;;;;27.13;51.78;101209.88;5076603;28;20045;-80
2022/08/03 07:22:27;;;;;;;8.10;4.63;;;;;;;27.14;52.05;101207.00;5076845;28;20049;-76
2022/08/03 07:24:55;;;;;;;8.43;5.60;;;;;;;27.16;52.13;101212.28;5080614;28;20044;-77
2022/08/03 07:27:25;;;;;;;8.95;5.32;;;;;;;27.16;52.21;101206.84;5096710;28;20484;-77
2022/08/03 07:29:54;;;;;;;7.65;5.93;;;;;;;27.15;51.89;101203.28;5096558;28;20506;-77
2022/08/03 07:32:21;;;;;;;6.57;5.18;;;;;;;27.17;52.12;101208.53;5097153;28;20498;-76
2022/08/03 07:34:49;;;;;;;9.65;5.75;;;;;;;27.18;52.42;101208.34;5095341;28;20047;-79
2022/08/03 07:37:16;;;;;;;5.85;5.20;;;;;;;27.22;52.26;101206.13;5076381;28;20048;-77
2022/08/03 07:39:43;;;;;;;6.75;5.45;;;;;;;27.23;52.29;101199.69;5077081;28;20052;-77
2022/08/03 07:42:12;;;;;;;8.45;5.32;;;;;;;27.25;52.26;101197.63;5089787;28;20052;-77
2022/08/03 07:44:41;;;;;;;7.32;5.40;;;;;;;27.28;52.21;101209.00;5096376;28;20047;-77
2022/08/03 07:47:08;;;;;;;8.85;5.00;;;;;;;27.29;52.75;101201.69;5096527;28;20055;-77
2022/08/03 07:49:48;;;;;;;7.38;5.28;;;;;;;27.30;52.23;101200.66;5096493;28;20067;-78
2022/08/03 07:55:02;;;;;;;9.82;4.32;;;;;;;27.34;51.91;101196.56;5096461;28;20048;-77
2022/08/03 07:57:30;;;;;;;5.55;4.53;;;;;;;27.36;52.43;101197.25;5096089;28;20071;-78
2022/08/03 07:59:57;;;;;;;7.65;5.45;;;;;;;27.36;52.57;101192.66;5093661;28;20048;-78
2022/08/03 08:02:38;;;;;;;5.18;4.60;;;;;;;27.38;52.44;101195.19;5084718;28;20048;-78
2022/08/03 08:05:07;;;;;;;6.30;4.80;;;;;;;27.40;51.97;101201.31;5076051;28;20048;-77
2022/08/03 08:07:34;;;;;;;6.03;4.47;;;;;;;27.42;52.06;101193.81;5074665;28;20411;-76
2022/08/03 08:10:21;;;;;;;5.57;3.88;;;;;;;27.45;51.43;101195.34;5075721;28;20373;-79
2022/08/03 08:12:49;;;;;;;6.15;4.38;;;;;;;27.45;51.98;101193.47;5075831;28;20511;-77
2022/08/03 08:15:16;;;;;;;8.48;4.47;;;;;;;27.47;51.66;101194.16;5075520;28;20048;-77
2022/08/03 08:17:49;;;;;;;5.63;3.90;;;;;;;27.49;51.72;101192.06;5075534;28;20052;-77
2022/08/03 08:20:23;;;;;;;6.53;4.50;;;;;;;27.51;52.04;101186.47;5075514;28;20400;-78
2022/08/03 08:23:01;;;;;;;5.97;4.82;;;;;;;27.52;52.19;101183.56;5076009;28;20040;-78
2022/08/03 08:25:38;;;;;;;7.60;4.22;;;;;;;27.53;52.47;101182.53;5086536;28;20045;-79
2022/08/03 08:28:23;;;;;;;6.60;4.47;;;;;;;27.54;51.88;101183.38;5075509;28;20052;-78
2022/08/03 08:31:00;;;;;;;5.60;4.00;;;;;;;27.54;51.13;101186.94;5090741;28;20044;-78
2022/08/03 08:33:28;;;;;;;5.03;3.85;;;;;;;27.56;51.06;101195.78;5095506;28;20047;-77
2022/08/03 08:36:14;;;;;;;5.45;3.95;;;;;;;27.57;51.62;101186.59;5095624;28;20048;-77
2022/08/03 08:38:43;;;;;;;7.60;4.45;;;;;;;27.60;51.28;101186.25;5096105;28;20044;-78
2022/08/03 08:41:12;;;;;;;7.10;3.97;;;;;;;27.63;51.02;101187.78;5094157;28;20051;-78
2022/08/03 08:43:41;;;;;;;6.45;4.22;;;;;;;27.64;50.71;101177.75;5075401;28;20511;-77
2022/08/03 08:46:12;;;;;;;6.65;3.75;;;;;;;27.64;49.17;101191.34;5075277;28;20045;-78
2022/08/03 08:48:51;;;;;;;10.18;3.78;;;;;;;27.64;49.07;101192.19;5073634;28;20496;-78
2022/08/03 08:51:20;;;;;;;4.55;3.67;;;;;;;27.68;49.96;101195.41;5075000;28;20063;-78
2022/08/03 08:53:51;;;;;;;7.05;3.80;;;;;;;27.69;49.35;101178.03;5075756;28;20048;-78
2022/08/03 08:56:20;;;;;;;4.30;3.45;;;;;;;27.69;50.80;101184.31;5074933;28;20052;-81
2022/08/03 08:58:51;;;;;;;7.00;3.22;;;;;;;27.65;48.78;101180.28;5079038;28;20483;-78
2022/08/03 09:01:20;;;;;;;4.00;3.50;;;;;;;27.54;49.04;101184.22;5075217;28;20048;-78
2022/08/03 09:03:48;;;;;;;7.05;3.13;;;;;;;27.44;49.59;101185.50;5084743;28;20515;-77
2022/08/03 09:06:15;;;;;;;4.72;3.20;;;;;;;27.35;49.51;101188.25;5093986;28;20040;-77
2022/08/03 09:08:43;;;;;;;3.70;3.40;;;;;;;27.27;49.82;101184.72;5095063;28;20043;-78
2022/08/03 09:11:10;;;;;;;5.72;3.53;;;;;;;27.18;49.50;101180.31;5094930;28;20515;-78
2022/08/03 09:13:38;;;;;;;3.53;2.92;;;;;;;27.10;49.49;101182.06;5094648;28;20055;-79
2022/08/03 09:16:17;;;;;;;5.18;3.00;;;;;;;27.02;49.44;101182.06;5085126;28;20053;-78
2022/08/03 09:18:49;;;;;;;5.20;3.35;;;;;;;26.96;49.15;101182.72;5074819;28;20495;-77
2022/08/03 09:21:30;;;;;;;3.90;2.83;;;;;;;26.88;49.55;101185.47;5074342;28;20044;-77
2022/08/03 09:24:02;;;;;;;5.30;3.05;;;;;;;26.86;50.31;101182.94;5078633;28;20036;-78
2022/08/03 09:26:33;;;;;;;;;;;;;;;26.81;49.76;101179.88;5095282;28;20055;-78
2022/08/03 09:29:08;;;;;;;5.18;3.38;;;;;;;26.77;50.00;101183.94;5094242;28;19920;-77
2022/08/03 09:31:45;;;;;;;5.13;2.85;;;;;;;26.73;49.87;101173.59;5094514;28;20047;-77
2022/08/03 09:34:15;;;;;;;5.33;3.10;;;;;;;26.71;50.03;101170.22;5094208;28;20430;-77
2022/08/03 09:36:48;;;;;;;4.78;2.83;;;;;;;26.68;50.04;101170.56;5094646;28;20276;-77
2022/08/03 09:39:17;;;;;;;4.55;3.05;;;;;;;26.66;49.83;101167.16;5092677;28;20052;-77
2022/08/03 09:42:04;;;;;;;5.13;3.35;;;;;;;26.62;49.61;101167.53;5094027;28;20047;-77
2022/08/03 09:44:36;;;;;;;5.38;3.00;;;;;;;26.60;49.59;101177.69;5094057;28;20047;-77
2022/08/03 09:47:08;;;;;;;4.50;2.92;;;;;;;26.58;49.77;101174.31;5094693;28;20066;-77
2022/08/03 09:49:37;;;;;;;3.33;2.80;;;;;;;26.56;49.70;101172.78;5094419;28;20036;-78
2022/08/03 09:52:17;;;;;;;3.13;2.58;;;;;;;26.52;49.52;101175.00;5094179;28;20043;-78
2022/08/03 09:55:13;;;;;;;5.78;3.17;;;;;;;26.52;49.31;101168.72;5094285;28;20055;-77
2022/08/03 09:58:09;;;;;;;4.68;3.05;;;;;;;26.50;49.24;101160.75;5093061;28;20385;-78
2022/08/03 10:01:06;;;;;;;4.07;2.95;;;;;;;26.48;49.37;101157.34;5093811;28;20040;-77
2022/08/03 10:03:58;;;;;;;3.83;3.08;;;;;;;26.47;49.20;101163.81;5087663;28;20064;-77
2022/08/03 10:06:31;;;;;;;3.38;2.58;;;;;;;26.47;49.48;101160.25;5070816;28;20048;-77
2022/08/03 10:09:09;;;;;;;4.68;2.75;;;;;;;26.46;49.07;101153.13;5073827;28;20476;-77
2022/08/03 10:11:38;;;;;;;3.45;2.60;;;;;;;26.46;49.16;101153.13;5072634;28;20059;-77
2022/08/03 10:14:17;;;;;;;4.03;3.08;;;;;;;26.45;48.98;101157.69;5072025;28;20408;-77
2022/08/03 10:16:46;;;;;;;4.03;2.78;;;;;;;26.43;49.04;101148.00;5073748;28;20049;-79
2022/08/03 10:19:14;;;;;;;5.82;3.22;;;;;;;26.43;49.09;101143.41;5073624;28;20051;-77
2022/08/03 10:21:49;;;;;;;6.53;3.10;;;;;;;26.43;49.28;101146.13;5072420;28;20055;-77
2022/08/03 10:24:23;;;;;;;3.17;2.67;;;;;;;26.41;49.58;101137.28;5073800;28;20045;-79
2022/08/03 10:26:52;;;;;;;3.63;2.75;;;;;;;26.42;48.53;101140.88;5073766;28;20048;-78
2022/08/03 10:29:27;;;;;;;3.90;2.85;;;;;;;26.40;48.18;101138.31;5073655;28;20040;-78
2022/08/03 10:31:58;;;;;;;4.82;3.03;;;;;;;26.39;47.66;101133.91;5073177;28;20049;-77
2022/08/03 10:34:32;;;;;;;5.55;3.35;;;;;;;26.37;47.98;101133.22;5073958;28;20048;-78
2022/08/03 10:37:07;;;;;;;4.00;3.17;;;;;;;26.36;47.79;101134.25;5072120;28;20037;-79
2022/08/03 10:39:35;;;;;;;3.28;2.42;;;;;;;26.34;47.43;101130.88;5073242;28;20404;-78
2022/08/03 10:42:04;;;;;;;7.05;3.67;;;;;;;26.34;47.68;101133.59;5073203;28;20867;-77
2022/08/03 10:44:41;;;;;;;6.25;2.90;;;;;;;26.30;47.15;101122.22;5073716;28;20052;-77
2022/08/03 10:47:09;;;;;;;4.38;3.03;;;;;;;26.30;47.68;101121.38;5076621;28;20040;-79
2022/08/03 10:49:37;;;;;;;6.53;3.25;;;;;;;26.30;48.49;101114.09;5092270;28;20048;-82
2022/08/03 10:52:05;;;;;;;4.10;2.65;;;;;;;26.37;48.45;101111.50;5094630;28;20052;-77
2022/08/03 10:57:53;;;;;;;4.25;2.67;;;;;;;26.56;49.05;101103.03;5097746;28;20074;-77
2022/08/03 11:00:27;;;;;;;3.65;2.67;;;;;;;26.65;48.94;101106.56;5097639;28;20048;-76
2022/08/03 11:03:13;;;;;;;6.93;3.00;;;;;;;26.74;49.18;101100.13;5097558;28;20044;-77
2022/08/03 11:05:47;;;;;;;5.63;3.00;;;;;;;26.81;48.79;101100.25;5097787;28;20044;-77
2022/08/03 11:08:19;;;;;;;4.75;2.70;;;;;;;26.85;49.08;101094.28;5098172;28;20048;-77
2022/08/03 11:10:47;;;;;;;3.55;2.70;;;;;;;26.92;49.02;101097.16;5097361;28;20040;-77
2022/08/03 11:13:18;;;;;;;5.40;2.97;;;;;;;26.96;49.22;101095.78;5097945;28;20106;-77
2022/08/03 11:15:47;;;;;;;3.38;2.40;;;;;;;27.00;48.63;101094.41;5097943;28;20040;-77
2022/08/03 11:18:15;;;;;;;3.28;2.60;;;;;;;27.04;48.44;101097.63;5097429;28;20045;-77
2022/08/03 11:20:42;;;;;;;4.88;2.85;;;;;;;27.07;48.69;101083.69;5097808;28;20475;-77
2022/08/03 11:23:10;;;;;;;7.80;2.70;;;;;;;27.09;48.59;101085.19;5097563;28;20044;-77
2022/08/03 11:26:08;;;;;;;4.45;3.05;;;;;;;27.13;48.68;101084.88;5097146;28;20048;-77
2022/08/03 11:28:40;;;;;;;5.93;2.65;;;;;;;27.15;48.69;101077.41;5096533;28;20047;-77
2022/08/03 11:31:22;;;;;;;3.15;2.45;;;;;;;27.17;48.83;101075.34;5097686;28;20040;-77
2022/08/03 11:34:13;;;;;;;6.00;2.67;;;;;;;27.19;48.63;101078.75;5097786;28;20070;-77
2022/08/03 11:37:19;;;;;;;4.28;2.55;;;;;;;27.21;48.80;101072.09;5079040;28;20392;-77
2022/08/03 11:39:49;;;;;;;4.38;2.88;;;;;;;27.23;48.85;101066.50;5096853;28;20047;-77
2022/08/03 11:42:22;;;;;;;4.93;2.63;;;;;;;27.26;48.77;101071.53;5096828;28;20051;-77
2022/08/03 11:44:51;;;;;;;4.90;2.70;;;;;;;27.27;48.65;101070.53;5096270;28;20044;-77
2022/08/03 11:47:23;;;;;;;5.03;2.67;;;;;;;27.27;48.79;101073.25;5097266;28;20043;-77
2022/08/03 11:49:54;;;;;;;5.50;2.90;;;;;;;27.29;48.88;101061.16;5097256;28;20048;-77
2022/08/03 11:52:22;;;;;;;4.03;2.60;;;;;;;27.32;48.76;101068.13;5096757;28;20291;-77
2022/08/03 11:54:54;;;;;;;6.30;2.88;;;;;;;27.32;48.56;101063.53;5097189;28;20059;-77
2022/08/03 11:57:34;;;;;;;3.05;2.40;;;;;;;27.33;48.52;101062.50;5096377;28;20056;-77
2022/08/03 12:00:27;;;;;;;3.58;2.47;;;;;;;27.34;48.63;101064.19;5096547;28;20047;-77
2022/08/03 12:03:00;;;;;;;3.75;2.42;;;;;;;27.36;48.82;101058.59;5096333;28;20059;-77